Time;durP1;ratioP1;P1;durP2;ratioP2;P2;SDS_P1;SDS_P2;PMS_P1;PMS_P2;Temp;Humidity;BMP_temperature;BMP_pressure;BME280_temperature;BME280_humidity;BME280_pressure;Samples;Min_cycle;Max_cycle;Signal;HPM_P1;HPM_P2
2021/12/10 00:02:03;;;;;;;5.53;2.13;;;21.70;61.20;;;;;;5065497;28;20254;-58
2021/12/10 00:04:36;;;;;;;5.32;1.70;;;21.70;60.80;;;;;;5064936;28;20283;-45
2021/12/10 00:07:11;;;;;;;5.00;1.80;;;21.70;60.50;;;;;;5065798;28;20223;-44
2021/12/10 00:09:44;;;;;;;4.88;1.85;;;21.70;60.90;;;;;;5066526;28;20563;-45
2021/12/10 00:12:20;;;;;;;5.05;1.77;;;21.70;60.70;;;;;;5066865;28;20290;-51
2021/12/10 00:14:51;;;;;;;5.80;1.70;;;21.80;60.50;;;;;;5064894;28;20292;-56
2021/12/10 00:17:23;;;;;;;4.30;1.60;;;21.70;60.50;;;;;;5063883;28;20250;-46
2021/12/10 00:19:57;;;;;;;4.70;1.80;;;21.70;60.40;;;;;;5065145;28;20308;-57
2021/12/10 00:22:34;;;;;;;4.85;1.80;;;21.80;60.60;;;;;;5066108;28;20197;-44
2021/12/10 00:25:07;;;;;;;6.75;2.22;;;21.80;61.60;;;;;;5064189;28;20310;-46
2021/12/10 00:27:40;;;;;;;3.80;1.70;;;21.80;60.90;;;;;;5063869;28;20306;-44
2021/12/10 00:30:14;;;;;;;4.70;2.10;;;21.80;60.80;;;;;;5064186;28;20292;-44
2021/12/10 00:32:47;;;;;;;8.15;2.13;;;21.80;60.90;;;;;;5066516;28;20195;-45
2021/12/10 00:35:21;;;;;;;4.35;1.88;;;21.80;61.00;;;;;;5064792;28;20634;-44
2021/12/10 00:37:52;;;;;;;6.38;1.90;;;21.80;61.10;;;;;;5064256;28;20301;-46
2021/12/10 00:40:24;;;;;;;5.60;1.90;;;21.80;60.90;;;;;;5065661;28;20283;-44
2021/12/10 00:42:57;;;;;;;6.68;2.28;;;21.80;61.00;;;;;;5065243;28;20207;-44
2021/12/10 00:45:28;;;;;;;5.82;2.60;;;21.80;60.70;;;;;;5065311;28;20285;-50
2021/12/10 00:47:58;;;;;;;5.68;2.00;;;21.80;60.60;;;;;;5064005;28;20211;-45
2021/12/10 00:50:32;;;;;;;6.32;2.00;;;21.80;60.40;;;;;;5063311;28;20202;-44
2021/12/10 00:53:03;;;;;;;4.40;1.90;;;21.80;60.40;;;;;;5054806;28;20774;-47
2021/12/10 00:55:34;;;;;;;4.07;1.90;;;21.80;60.70;;;;;;5060524;28;20194;-45
2021/12/10 00:58:07;;;;;;;4.80;1.65;;;21.80;61.30;;;;;;5063354;28;20652;-56
2021/12/10 01:00:40;;;;;;;4.45;1.85;;;21.90;61.40;;;;;;5064200;28;20685;-48
2021/12/10 01:03:13;;;;;;;4.03;1.90;;;21.90;61.30;;;;;;5066351;28;20282;-45
2021/12/10 01:05:46;;;;;;;5.80;2.33;;;21.90;60.80;;;;;;5066535;28;20270;-44
2021/12/10 01:08:17;;;;;;;5.40;1.92;;;21.90;60.80;;;;;;5065516;28;20301;-54
2021/12/10 01:10:51;;;;;;;4.85;1.98;;;21.90;60.70;;;;;;5064878;28;20661;-44
2021/12/10 01:13:28;;;;;;;7.95;2.25;;;21.90;60.90;;;;;;5068181;28;20632;-54
2021/12/10 01:16:17;;;;;;;7.22;2.38;;;21.90;60.90;;;;;;5070108;28;20199;-51
2021/12/10 01:24:38;;;;;;;6.60;2.33;;;21.90;60.80;;;;;;5068387;28;20665;-48
2021/12/10 01:27:14;;;;;;;6.65;2.35;;;21.90;60.70;;;;;;5069747;28;20238;-48
2021/12/10 01:29:48;;;;;;;3.15;1.92;;;21.90;60.60;;;;;;5069220;28;20224;-57
2021/12/10 01:32:20;;;;;;;3.60;1.90;;;21.90;60.60;;;;;;5067203;28;20197;-44
2021/12/10 01:34:51;;;;;;;4.63;2.03;;;21.90;60.50;;;;;;5068008;28;20294;-53
2021/12/10 01:37:22;;;;;;;4.00;1.75;;;21.90;60.60;;;;;;5069208;28;21638;-48
2021/12/10 01:39:52;;;;;;;3.95;2.03;;;21.90;60.60;;;;;;5070035;28;20227;-52
2021/12/10 01:42:35;;;;;;;5.53;2.20;;;21.90;60.50;;;;;;5068325;28;20303;-50
2021/12/10 01:45:18;;;;;;;3.92;1.92;;;21.90;60.50;;;;;;5068898;28;20222;-52
2021/12/10 01:47:51;;;;;;;4.40;1.90;;;21.90;60.40;;;;;;5066357;28;20610;-45
2021/12/10 01:50:21;;;;;;;3.35;1.80;;;22.00;60.60;;;;;;5068493;28;20289;-47
2021/12/10 01:52:58;;;;;;;3.47;1.80;;;22.00;60.50;;;;;;5069482;28;20627;-50
2021/12/10 01:55:30;;;;;;;5.93;2.00;;;21.90;60.70;;;;;;5068009;28;20289;-45
2021/12/10 01:58:02;;;;;;;5.82;2.08;;;22.00;60.70;;;;;;5067523;28;20218;-52
2021/12/10 02:00:37;;;;;;;4.47;1.83;;;21.90;60.70;;;;;;5069290;28;20285;-53
2021/12/10 02:03:07;;;;;;;3.45;1.77;;;21.90;60.70;;;;;;5068211;28;20230;-45
2021/12/10 02:05:38;;;;;;;3.40;1.52;;;21.90;60.70;;;;;;5067142;28;20309;-44
2021/12/10 02:08:09;;;;;;;2.35;1.23;;;22.00;60.70;;;;;;5067783;28;20222;-50
2021/12/10 02:10:40;;;;;;;4.93;1.73;;;22.00;60.70;;;;;;5068581;28;20206;-49
2021/12/10 02:13:11;;;;;;;4.40;1.77;;;22.00;60.60;;;;;;5068388;28;20753;-44
2021/12/10 02:15:43;;;;;;;4.72;2.13;;;22.00;60.50;;;;;;5067441;28;20194;-53
2021/12/10 02:18:16;;;;;;;4.32;1.80;;;22.00;60.40;;;;;;5066453;28;21036;-46
2021/12/10 02:21:17;;;;;;;3.90;1.65;;;22.00;60.30;;;;;;5066303;28;20673;-46
2021/12/10 02:23:56;;;;;;;4.10;1.80;;;22.00;60.10;;;;;;5069278;28;20233;-45
2021/12/10 02:26:28;;;;;;;4.20;1.90;;;22.00;60.10;;;;;;5067066;28;20190;-52
2021/12/10 02:28:59;;;;;;;5.50;1.90;;;22.00;60.10;;;;;;5066658;28;20337;-46
2021/12/10 02:31:30;;;;;;;2.90;1.42;;;22.00;60.00;;;;;;5067952;28;20288;-51
2021/12/10 02:34:01;;;;;;;4.03;1.98;;;22.00;60.00;;;;;;5069579;28;20317;-51
2021/12/10 02:36:34;;;;;;;4.72;1.70;;;22.00;60.00;;;;;;5066987;28;20198;-53
2021/12/10 02:39:04;;;;;;;3.70;1.63;;;22.00;60.20;;;;;;5066974;28;20294;-44
2021/12/10 02:41:35;;;;;;;3.85;1.95;;;22.00;60.10;;;;;;5067242;28;20298;-45
2021/12/10 02:44:07;;;;;;;5.50;2.03;;;22.00;60.30;;;;;;5067893;28;21945;-47
2021/12/10 02:46:38;;;;;;;4.65;2.00;;;22.00;60.50;;;;;;5066915;28;20613;-45
2021/12/10 02:49:11;;;;;;;3.40;1.88;;;22.00;60.50;;;;;;5068576;28;20278;-44
2021/12/10 02:51:43;;;;;;;5.28;1.55;;;22.00;60.50;;;;;;5060400;28;20287;-56
2021/12/10 02:54:21;;;;;;;3.30;1.60;;;22.00;60.60;;;;;;5068536;28;20199;-44
2021/12/10 02:56:52;;;;;;;3.25;1.70;;;22.00;60.60;;;;;;5067254;28;20193;-48
2021/12/10 02:59:22;;;;;;;3.15;1.73;;;22.00;60.70;;;;;;5067849;28;20225;-49
2021/12/10 03:01:54;;;;;;;3.03;1.55;;;22.00;61.30;;;;;;5066535;28;20299;-44
2021/12/10 03:04:26;;;;;;;2.38;1.63;;;22.00;60.40;;;;;;5067488;28;20302;-44
2021/12/10 03:07:02;;;;;;;4.82;1.60;;;22.00;60.40;;;;;;5067735;28;20210;-44
2021/12/10 03:09:32;;;;;;;3.45;1.92;;;22.00;60.40;;;;;;5064891;28;20728;-47
2021/12/10 03:12:03;;;;;;;2.92;2.20;;;22.00;60.40;;;;;;5066723;28;20230;-44
2021/12/10 03:14:37;;;;;;;4.65;1.65;;;22.00;60.40;;;;;;5069275;28;20206;-44
2021/12/10 03:17:11;;;;;;;5.30;2.30;;;22.10;60.60;;;;;;5067653;28;20301;-44
2021/12/10 03:19:42;;;;;;;3.35;1.80;;;22.00;60.50;;;;;;5065859;28;20199;-52
2021/12/10 03:22:14;;;;;;;3.92;1.98;;;22.00;60.50;;;;;;5065793;28;20198;-54
2021/12/10 03:24:44;;;;;;;4.50;2.17;;;22.10;60.70;;;;;;5067814;28;20317;-50
2021/12/10 03:27:15;;;;;;;4.25;2.15;;;22.00;60.70;;;;;;5065914;28;20806;-49
2021/12/10 03:29:47;;;;;;;4.40;2.10;;;22.10;61.00;;;;;;5066015;28;20729;-52
2021/12/10 03:32:20;;;;;;;5.00;2.55;;;22.10;61.10;;;;;;5066496;28;20282;-49
2021/12/10 03:34:50;;;;;;;6.03;2.50;;;22.10;61.20;;;;;;5069330;28;20617;-44
2021/12/10 03:37:23;;;;;;;5.53;2.70;;;22.10;61.10;;;;;;5065611;28;20649;-50
2021/12/10 03:39:55;;;;;;;5.03;2.47;;;22.10;61.00;;;;;;5066064;28;20279;-49
2021/12/10 03:42:26;;;;;;;3.72;2.30;;;22.10;61.00;;;;;;5065706;28;20286;-51
2021/12/10 03:44:57;;;;;;;6.55;2.92;;;22.10;61.00;;;;;;5067189;28;20309;-44
2021/12/10 03:47:28;;;;;;;4.60;2.60;;;22.10;61.20;;;;;;5066690;28;20314;-45
2021/12/10 03:49:58;;;;;;;5.80;2.60;;;22.10;61.50;;;;;;5065264;28;20291;-47
2021/12/10 03:52:30;;;;;;;5.18;2.95;;;22.10;61.40;;;;;;5065707;28;20605;-49
2021/12/10 03:55:01;;;;;;;5.10;2.55;;;22.20;62.40;;;;;;5067416;28;20207;-49
2021/12/10 03:57:32;;;;;;;3.97;2.60;;;22.20;61.60;;;;;;5065329;28;20249;-47
2021/12/10 04:00:02;;;;;;;4.68;3.05;;;22.20;61.40;;;;;;5064160;28;20282;-51
2021/12/10 04:02:33;;;;;;;5.65;2.92;;;22.20;61.30;;;;;;5065311;28;20631;-48
2021/12/10 04:05:03;;;;;;;6.53;2.92;;;22.20;61.10;;;;;;5066519;28;20301;-49
2021/12/10 04:07:36;;;;;;;5.40;2.88;;;22.20;61.10;;;;;;5065930;28;20293;-55
2021/12/10 04:10:09;;;;;;;5.00;3.10;;;22.30;61.20;;;;;;5064209;28;20191;-56
2021/12/10 04:12:39;;;;;;;5.78;3.15;;;22.30;61.20;;;;;;5064886;28;20625;-46
2021/12/10 04:15:12;;;;;;;7.28;3.20;;;22.30;61.20;;;;;;5066834;28;20274;-46
2021/12/10 04:17:43;;;;;;;4.95;3.08;;;22.30;61.20;;;;;;5067074;28;20207;-54
2021/12/10 04:20:14;;;;;;;5.50;3.58;;;22.30;61.10;;;;;;5064652;28;20753;-46
2021/12/10 04:22:47;;;;;;;5.40;3.35;;;22.30;61.90;;;;;;5065581;28;20231;-49
2021/12/10 04:25:20;;;;;;;5.32;3.22;;;22.30;61.10;;;;;;5067742;28;20218;-48
2021/12/10 04:27:51;;;;;;;5.32;3.15;;;22.30;61.00;;;;;;5065296;28;20212;-47
2021/12/10 04:30:22;;;;;;;5.20;3.20;;;22.30;61.00;;;;;;5064496;28;20277;-49
2021/12/10 04:32:53;;;;;;;6.53;3.83;;;22.30;61.10;;;;;;5064689;28;20874;-49
2021/12/10 04:35:24;;;;;;;5.05;3.53;;;22.40;61.00;;;;;;5066715;28;20286;-50
2021/12/10 04:37:56;;;;;;;4.93;3.10;;;22.40;61.00;;;;;;5066225;28;20625;-52
2021/12/10 04:40:29;;;;;;;5.65;3.15;;;22.40;61.00;;;;;;5064262;28;20281;-49
2021/12/10 04:42:59;;;;;;;6.70;3.85;;;22.40;61.10;;;;;;5063574;28;20231;-45
2021/12/10 04:45:30;;;;;;;6.18;3.55;;;22.40;61.20;;;;;;5066788;28;20321;-52
2021/12/10 04:48:02;;;;;;;6.85;3.33;;;22.40;61.90;;;;;;5064980;28;20634;-51
2021/12/10 04:50:33;;;;;;;8.00;3.30;;;22.40;61.00;;;;;;5065790;28;20234;-48
2021/12/10 04:53:10;;;;;;;5.68;3.55;;;22.50;61.00;;;;;;5065262;28;20288;-49
2021/12/10 04:55:42;;;;;;;7.05;3.63;;;22.50;61.00;;;;;;5066387;28;20633;-47
2021/12/10 04:58:13;;;;;;;7.40;3.42;;;22.50;60.90;;;;;;5065767;28;20218;-50
2021/12/10 05:00:47;;;;;;;4.97;3.22;;;22.50;60.90;;;;;;5065281;28;20625;-46
2021/12/10 05:03:17;;;;;;;7.10;3.58;;;22.50;60.70;;;;;;5065363;28;20238;-50
2021/12/10 05:05:48;;;;;;;7.10;3.80;;;22.50;60.70;;;;;;5065543;28;20326;-48
2021/12/10 05:08:20;;;;;;;6.18;3.55;;;22.50;60.70;;;;;;5064790;28;20317;-49
2021/12/10 05:10:51;;;;;;;6.10;3.35;;;22.50;60.70;;;;;;5063271;28;20290;-47
2021/12/10 05:13:22;;;;;;;6.03;2.88;;;22.50;60.70;;;;;;5062788;28;20341;-45
2021/12/10 05:15:57;;;;;;;7.07;3.47;;;22.50;60.70;;;;;;5065958;28;20199;-52
2021/12/10 05:18:29;;;;;;;4.72;3.38;;;22.50;60.50;;;;;;5064693;28;20214;-49
2021/12/10 05:21:00;;;;;;;4.75;3.45;;;22.60;60.80;;;;;;5063757;28;20238;-54
2021/12/10 05:23:32;;;;;;;6.10;3.75;;;22.50;60.60;;;;;;5060910;28;20205;-44
2021/12/10 05:26:03;;;;;;;5.25;3.25;;;22.50;60.60;;;;;;5065490;28;20322;-51
2021/12/10 05:28:34;;;;;;;4.55;3.50;;;22.60;60.70;;;;;;5064685;28;20314;-49
2021/12/10 05:31:04;;;;;;;6.00;3.65;;;22.60;60.60;;;;;;5064031;28;20286;-55
2021/12/10 05:33:35;;;;;;;5.45;3.97;;;22.60;60.60;;;;;;5064538;28;20227;-52
2021/12/10 05:36:07;;;;;;;6.82;3.88;;;22.60;60.60;;;;;;5065334;28;20233;-46
2021/12/10 05:38:39;;;;;;;5.57;3.65;;;22.60;60.60;;;;;;5065915;28;20592;-47
2021/12/10 05:41:11;;;;;;;6.82;3.70;;;22.60;60.70;;;;;;5065029;28;20652;-45
2021/12/10 05:43:43;;;;;;;4.95;3.55;;;22.60;60.70;;;;;;5064453;28;20622;-48
2021/12/10 05:46:16;;;;;;;6.22;4.00;;;22.60;60.80;;;;;;5065479;28;20313;-45
2021/12/10 05:48:46;;;;;;;6.60;3.75;;;22.60;60.80;;;;;;5065572;28;20741;-45
2021/12/10 05:51:17;;;;;;;6.90;4.07;;;22.60;60.70;;;;;;5065272;28;20225;-48
2021/12/10 05:53:49;;;;;;;6.30;3.85;;;22.60;60.80;;;;;;5065533;28;20282;-45
2021/12/10 05:56:20;;;;;;;5.38;3.80;;;22.60;60.80;;;;;;5066434;28;20210;-46
2021/12/10 05:58:51;;;;;;;7.15;3.83;;;22.60;60.70;;;;;;5065381;28;20302;-45
2021/12/10 06:01:23;;;;;;;4.82;3.65;;;22.70;60.70;;;;;;5067463;28;20717;-47
2021/12/10 06:03:53;;;;;;;4.55;3.50;;;22.70;60.80;;;;;;5066768;28;20286;-47
2021/12/10 06:06:28;;;;;;;7.43;3.85;;;22.70;60.60;;;;;;5069471;28;20237;-51
2021/12/10 06:09:02;;;;;;;6.13;3.40;;;22.70;60.60;;;;;;5068255;28;20772;-45
2021/12/10 06:11:32;;;;;;;5.72;3.30;;;22.70;60.50;;;;;;5066092;28;20226;-46
2021/12/10 06:14:03;;;;;;;6.47;3.85;;;22.70;60.50;;;;;;5066643;28;20282;-45
2021/12/10 06:16:33;;;;;;;6.80;3.40;;;22.70;60.50;;;;;;5114409;22;20643;-45
2021/12/10 06:19:04;;;;;;;5.28;3.70;;;22.70;60.40;;;;;;5089258;28;20195;-53
2021/12/10 06:21:34;;;;;;;5.38;3.70;;;22.70;60.30;;;;;;5089002;28;20280;-46
2021/12/10 06:24:08;;;;;;;5.38;3.97;;;22.70;60.20;;;;;;5088970;28;20286;-48
2021/12/10 06:26:39;;;;;;;4.93;3.80;;;22.80;60.30;;;;;;5080472;28;20317;-49
2021/12/10 06:29:09;;;;;;;4.78;3.33;;;22.80;60.20;;;;;;5088771;28;20255;-49
2021/12/10 06:31:40;;;;;;;4.78;3.70;;;22.80;60.20;;;;;;5087954;28;20240;-49
2021/12/10 06:34:11;;;;;;;4.97;3.67;;;22.80;60.20;;;;;;5087549;28;20234;-53
2021/12/10 06:36:42;;;;;;;5.00;3.53;;;22.80;60.10;;;;;;5088693;28;20293;-44
2021/12/10 06:39:19;;;;;;;5.13;3.55;;;22.80;60.10;;;;;;5089155;28;20277;-46
2021/12/10 06:41:51;;;;;;;6.45;3.80;;;22.80;60.20;;;;;;5088670;28;20190;-51
2021/12/10 06:44:22;;;;;;;4.85;4.05;;;22.80;60.10;;;;;;5087218;28;20293;-48
2021/12/10 06:46:53;;;;;;;7.72;3.85;;;22.80;60.10;;;;;;5088598;28;20336;-51
2021/12/10 06:49:24;;;;;;;4.82;3.80;;;22.80;60.10;;;;;;5089133;28;20244;-49
2021/12/10 06:51:55;;;;;;;8.20;3.78;;;22.80;60.10;;;;;;5087927;28;20297;-54
2021/12/10 06:54:27;;;;;;;5.43;3.83;;;22.80;60.00;;;;;;5088500;28;20313;-48
2021/12/10 06:56:58;;;;;;;5.10;3.35;;;22.80;60.00;;;;;;5086586;28;20242;-51
2021/12/10 06:59:29;;;;;;;7.03;4.00;;;22.80;60.00;;;;;;5087574;28;20817;-49
2021/12/10 07:01:59;;;;;;;4.25;3.65;;;22.80;60.00;;;;;;5088141;28;20222;-52
2021/12/10 07:04:30;;;;;;;4.03;3.53;;;22.80;59.90;;;;;;5087435;28;20221;-50
2021/12/10 07:07:00;;;;;;;5.35;3.50;;;22.80;59.90;;;;;;5088631;28;20310;-48
2021/12/10 07:09:33;;;;;;;4.93;3.80;;;22.80;59.90;;;;;;5085545;28;20190;-49
2021/12/10 07:12:03;;;;;;;4.55;3.63;;;22.80;59.90;;;;;;5087919;28;20237;-51
2021/12/10 07:14:34;;;;;;;5.53;3.50;;;22.80;59.80;;;;;;5088334;28;20259;-49
2021/12/10 07:17:05;;;;;;;4.75;3.45;;;22.80;59.80;;;;;;5088857;28;20245;-46
2021/12/10 07:19:36;;;;;;;4.38;3.85;;;22.90;59.90;;;;;;5089082;28;20627;-46
2021/12/10 07:22:07;;;;;;;5.45;3.65;;;22.90;59.90;;;;;;5088830;28;20201;-49
2021/12/10 07:24:39;;;;;;;5.82;3.80;;;22.80;59.80;;;;;;5086914;28;20487;-52
2021/12/10 07:27:11;;;;;;;5.03;3.60;;;22.90;59.80;;;;;;5088712;28;20276;-47
2021/12/10 07:29:42;;;;;;;4.60;3.40;;;22.80;59.70;;;;;;5085272;28;20284;-49
2021/12/10 07:32:13;;;;;;;4.70;3.45;;;22.80;59.70;;;;;;5087131;28;20289;-51
2021/12/10 07:34:44;;;;;;;4.30;3.33;;;22.80;59.70;;;;;;5087026;28;20614;-46
2021/12/10 07:37:14;;;;;;;5.38;3.60;;;22.80;59.70;;;;;;5088167;28;20663;-46
2021/12/10 07:39:47;;;;;;;5.20;3.65;;;22.80;59.70;;;;;;5086968;28;20610;-48
2021/12/10 07:42:17;;;;;;;4.20;3.40;;;22.80;59.60;;;;;;5085731;28;20281;-47
2021/12/10 07:44:48;;;;;;;4.82;3.78;;;22.80;59.60;;;;;;5088011;28;20273;-46
2021/12/10 07:47:18;;;;;;;4.18;3.78;;;22.80;59.50;;;;;;5087947;28;20305;-47
2021/12/10 07:49:49;;;;;;;4.25;3.78;;;22.80;59.50;;;;;;5087753;28;20281;-49
2021/12/10 07:52:26;;;;;;;4.15;3.70;;;22.80;59.40;;;;;;5087290;28;20277;-50
2021/12/10 07:54:59;;;;;;;5.25;4.07;;;22.80;59.40;;;;;;5087401;28;20198;-49
2021/12/10 07:57:29;;;;;;;4.50;3.92;;;22.80;59.40;;;;;;5087834;28;20313;-52
2021/12/10 08:00:00;;;;;;;4.80;4.18;;;22.80;59.40;;;;;;5075732;28;20269;-50
2021/12/10 08:02:30;;;;;;;3.95;3.47;;;22.80;59.40;;;;;;5087057;28;20286;-47
2021/12/10 08:05:01;;;;;;;4.00;3.58;;;22.80;59.40;;;;;;5086401;28;20286;-52
2021/12/10 08:07:31;;;;;;;5.22;4.07;;;22.80;59.40;;;;;;5087672;28;20306;-47
2021/12/10 08:10:04;;;;;;;5.75;3.75;;;22.80;59.40;;;;;;5085632;28;20278;-47
2021/12/10 08:12:35;;;;;;;4.22;3.72;;;22.80;59.40;;;;;;5084155;28;20293;-44
2021/12/10 08:15:07;;;;;;;5.30;3.85;;;22.80;59.40;;;;;;5085026;28;20281;-46
2021/12/10 08:17:38;;;;;;;4.45;3.72;;;22.80;59.40;;;;;;5087044;28;20660;-54
2021/12/10 08:20:12;;;;;;;4.72;3.63;;;22.80;59.40;;;;;;5085915;28;20298;-50
2021/12/10 08:22:43;;;;;;;4.28;3.55;;;22.70;59.40;;;;;;5085080;28;20718;-44
2021/12/10 08:25:15;;;;;;;4.53;3.90;;;22.80;59.40;;;;;;5085956;28;20217;-48
2021/12/10 08:27:46;;;;;;;3.45;3.15;;;22.70;59.40;;;;;;5086361;28;20741;-47
2021/12/10 08:30:20;;;;;;;5.20;3.70;;;22.70;59.30;;;;;;5086320;28;20276;-53
2021/12/10 08:32:52;;;;;;;6.47;3.97;;;22.80;59.30;;;;;;5085597;28;20321;-56
2021/12/10 08:35:24;;;;;;;3.83;3.38;;;22.70;59.20;;;;;;5086463;28;20202;-49
2021/12/10 08:37:56;;;;;;;5.72;3.58;;;22.70;59.20;;;;;;5083115;28;20274;-45
2021/12/10 08:40:31;;;;;;;4.25;3.75;;;22.70;59.20;;;;;;5083371;28;20198;-54
2021/12/10 08:43:03;;;;;;;5.13;3.70;;;22.70;59.20;;;;;;5084401;28;20281;-49
2021/12/10 08:45:34;;;;;;;3.88;3.45;;;22.70;59.20;;;;;;5083295;28;20205;-51
2021/12/10 08:48:06;;;;;;;5.13;3.65;;;22.70;59.20;;;;;;5082976;28;20827;-49
2021/12/10 08:50:38;;;;;;;5.10;3.72;;;22.70;59.20;;;;;;5082396;28;20237;-44
2021/12/10 08:53:12;;;;;;;4.80;3.90;;;22.60;59.10;;;;;;5083355;28;20210;-52
2021/12/10 08:55:48;;;;;;;4.10;3.70;;;22.60;59.20;;;;;;5083900;28;20216;-50
2021/12/10 08:58:19;;;;;;;3.95;3.55;;;22.60;59.10;;;;;;5084777;28;20231;-45
2021/12/10 09:00:53;;;;;;;4.70;3.58;;;22.60;59.10;;;;;;5083552;28;20277;-47
2021/12/10 09:03:23;;;;;;;4.15;3.05;;;22.60;59.10;;;;;;5082751;28;20301;-50
2021/12/10 09:05:54;;;;;;;5.32;3.53;;;22.70;59.10;;;;;;5083107;28;20289;-46
2021/12/10 09:08:24;;;;;;;3.53;3.20;;;22.60;59.10;;;;;;5083877;28;20632;-54
2021/12/10 09:10:57;;;;;;;4.75;3.80;;;22.60;59.40;;;;;;5084902;28;20313;-54
2021/12/10 09:13:27;;;;;;;4.05;3.28;;;22.60;59.10;;;;;;5084184;28;20309;-47
2021/12/10 09:16:01;;;;;;;5.50;3.80;;;22.60;59.10;;;;;;5084236;28;20201;-51
2021/12/10 09:18:32;;;;;;;4.10;3.63;;;22.50;59.00;;;;;;5084624;28;20309;-48
2021/12/10 09:21:06;;;;;;;4.15;3.50;;;22.50;59.00;;;;;;5084543;28;20672;-48
2021/12/10 09:23:37;;;;;;;4.82;3.47;;;22.50;59.00;;;;;;5083370;28;20237;-57
2021/12/10 09:26:12;;;;;;;4.07;3.40;;;22.50;59.00;;;;;;5082275;28;20311;-51
2021/12/10 09:28:44;;;;;;;3.80;3.38;;;22.50;59.00;;;;;;5082817;28;20217;-50
2021/12/10 09:31:16;;;;;;;4.50;3.70;;;22.50;59.00;;;;;;5084096;28;20186;-52
2021/12/10 09:33:47;;;;;;;4.47;3.35;;;22.50;59.00;;;;;;5083565;28;20198;-53
2021/12/10 09:36:17;;;;;;;5.13;3.35;;;22.50;59.00;;;;;;5090947;28;20202;-54
2021/12/10 09:38:48;;;;;;;4.32;3.45;;;22.50;58.90;;;;;;5091266;28;20306;-49
2021/12/10 09:41:21;;;;;;;4.15;3.33;;;22.50;58.90;;;;;;5089053;28;20737;-50
2021/12/10 09:43:53;;;;;;;3.75;3.30;;;22.50;58.90;;;;;;5089087;28;20289;-50
2021/12/10 09:46:23;;;;;;;3.90;2.90;;;22.40;58.90;;;;;;5088858;28;20253;-51
2021/12/10 09:48:54;;;;;;;4.40;3.53;;;22.40;58.90;;;;;;5089208;28;20648;-55
2021/12/10 09:51:29;;;;;;;3.67;3.38;;;22.50;58.90;;;;;;5086669;28;20277;-48
2021/12/10 09:54:03;;;;;;;4.65;3.85;;;22.40;58.90;;;;;;5088150;28;20194;-44
2021/12/10 09:56:35;;;;;;;5.57;3.85;;;22.40;58.90;;;;;;5085772;28;20744;-49
2021/12/10 09:59:06;;;;;;;3.85;3.50;;;22.40;58.90;;;;;;5089475;28;20281;-44
2021/12/10 10:01:41;;;;;;;3.80;3.45;;;22.40;58.90;;;;;;5089851;28;20201;-46
2021/12/10 10:04:15;;;;;;;4.03;3.60;;;22.40;58.90;;;;;;5087423;28;20222;-48
2021/12/10 10:06:47;;;;;;;3.55;3.25;;;22.30;58.90;;;;;;5087160;28;20218;-43
2021/12/10 10:09:19;;;;;;;5.50;3.88;;;22.30;58.80;;;;;;5089458;28;20954;-47
2021/12/10 10:11:55;;;;;;;5.47;3.28;;;22.30;58.90;;;;;;5088542;28;20298;-44
2021/12/10 10:14:26;;;;;;;5.45;3.80;;;22.30;58.90;;;;;;5088149;28;20277;-46
2021/12/10 10:16:57;;;;;;;5.32;3.80;;;22.30;58.90;;;;;;5089118;28;20295;-43
2021/12/10 10:19:29;;;;;;;4.20;3.50;;;22.30;58.90;;;;;;5089724;28;20282;-49
2021/12/10 10:22:01;;;;;;;3.88;3.50;;;22.30;58.90;;;;;;5090042;28;20634;-49
2021/12/10 10:24:33;;;;;;;3.78;3.40;;;22.30;58.90;;;;;;5089863;28;20196;-44
2021/12/10 10:27:09;;;;;;;4.60;3.78;;;22.20;58.80;;;;;;5088598;28;20305;-46
2021/12/10 10:29:42;;;;;;;4.72;3.15;;;22.20;58.70;;;;;;5088015;28;20870;-45
2021/12/10 10:32:16;;;;;;;4.43;3.58;;;22.20;58.80;;;;;;5088800;28;20296;-43
2021/12/10 10:34:49;;;;;;;5.82;3.88;;;22.20;58.80;;;;;;5089806;28;20214;-44
2021/12/10 10:37:20;;;;;;;4.47;3.38;;;22.20;58.80;;;;;;5089768;28;20301;-44
2021/12/10 10:39:51;;;;;;;3.45;3.03;;;22.20;58.80;;;;;;5088757;28;20300;-47
2021/12/10 10:42:27;;;;;;;3.70;3.40;;;22.20;58.70;;;;;;5090972;28;20202;-47
2021/12/10 10:44:59;;;;;;;3.63;2.97;;;22.20;58.90;;;;;;5089741;28;20277;-43
2021/12/10 10:47:29;;;;;;;4.78;3.50;;;22.10;58.70;;;;;;5087258;28;20707;-44
2021/12/10 10:50:01;;;;;;;4.45;3.47;;;22.10;58.70;;;;;;5088850;28;20302;-45
2021/12/10 10:52:34;;;;;;;4.07;3.55;;;22.10;58.70;;;;;;5087735;28;20874;-45
2021/12/10 10:55:19;;;;;;;5.35;3.40;;;22.10;58.70;;;;;;5089640;28;20270;-46
2021/12/10 10:57:58;;;;;;;3.97;3.55;;;22.10;59.40;;;;;;5088660;28;20662;-43
2021/12/10 11:00:34;;;;;;;4.70;3.63;;;22.10;58.70;;;;;;5086190;28;20225;-43
2021/12/10 11:03:09;;;;;;;4.55;3.40;;;22.10;58.70;;;;;;5088411;28;20313;-44
2021/12/10 11:05:50;;;;;;;3.97;3.38;;;22.10;58.70;;;;;;5087408;28;20201;-45
2021/12/10 11:08:31;;;;;;;4.60;3.10;;;22.10;58.80;;;;;;5088700;28;20312;-44
2021/12/10 11:11:15;;;;;;;4.25;3.58;;;22.00;58.80;;;;;;5086861;28;20603;-44
2021/12/10 11:13:49;;;;;;;3.92;3.50;;;22.00;58.80;;;;;;5086305;28;20313;-45
2021/12/10 11:16:21;;;;;;;4.45;3.30;;;22.00;58.90;;;;;;5090730;28;20233;-45
2021/12/10 11:18:55;;;;;;;4.00;3.28;;;22.00;58.90;;;;;;5090232;28;20296;-44
2021/12/10 11:21:45;;;;;;;4.20;3.60;;;22.00;58.90;;;;;;5089528;28;20231;-43
2021/12/10 11:24:19;;;;;;;4.20;3.65;;;21.90;58.90;;;;;;5085460;28;20240;-44
2021/12/10 11:26:57;;;;;;;5.00;3.35;;;22.00;58.90;;;;;;5086470;28;20312;-47
2021/12/10 11:29:47;;;;;;;4.65;4.03;;;22.00;58.90;;;;;;5087943;28;20308;-44
2021/12/10 11:32:20;;;;;;;4.38;3.13;;;21.90;58.90;;;;;;5088682;28;20198;-44
2021/12/10 11:34:54;;;;;;;4.03;3.17;;;21.90;58.90;;;;;;5087999;28;20301;-45
2021/12/10 11:37:54;;;;;;;4.75;3.53;;;21.90;58.90;;;;;;5088931;28;20296;-45
2021/12/10 11:40:40;;;;;;;4.05;3.00;;;21.90;58.90;;;;;;5090747;28;20775;-51
2021/12/10 11:43:33;;;;;;;4.75;3.20;;;21.90;58.90;;;;;;5076294;28;20541;-45
2021/12/10 11:46:27;;;;;;;4.25;3.85;;;21.90;58.90;;;;;;5088762;28;20201;-45
2021/12/10 11:49:07;;;;;;;3.58;2.92;;;21.90;58.90;;;;;;5090142;28;20218;-44
2021/12/10 11:51:41;;;;;;;4.90;3.50;;;21.90;59.00;;;;;;5090161;28;20288;-45
2021/12/10 11:54:21;;;;;;;4.53;3.65;;;21.80;58.80;;;;;;5089858;28;20567;-45
2021/12/10 11:56:58;;;;;;;4.57;3.25;;;21.80;58.90;;;;;;5088104;28;20294;-47
2021/12/10 11:59:32;;;;;;;4.32;3.55;;;21.80;58.90;;;;;;5088069;28;20281;-49
2021/12/10 12:02:07;;;;;;;4.22;2.85;;;21.80;58.90;;;;;;5088808;28;20222;-45
2021/12/10 12:04:43;;;;;;;4.63;3.70;;;21.80;58.90;;;;;;5088307;28;20285;-44
2021/12/10 12:07:29;;;;;;;3.60;3.30;;;21.80;58.90;;;;;;5086560;28;21385;-50
2021/12/10 12:10:03;;;;;;;3.40;3.08;;;21.80;58.90;;;;;;5073875;28;20190;-54
2021/12/10 12:12:39;;;;;;;3.75;3.45;;;21.80;58.90;;;;;;5089080;28;20205;-45
2021/12/10 12:15:27;;;;;;;4.22;3.33;;;21.80;58.90;;;;;;5089053;28;20193;-44
2021/12/10 12:18:02;;;;;;;4.50;3.67;;;21.80;58.90;;;;;;5086932;28;20214;-47
2021/12/10 12:20:41;;;;;;;3.75;3.30;;;21.70;58.90;;;;;;5089973;28;20197;-48
2021/12/10 12:26:08;;;;;;;4.28;3.20;;;21.80;58.90;;;;;;5089092;28;20201;-45
2021/12/10 12:28:41;;;;;;;3.75;2.95;;;21.80;58.90;;;;;;5087956;28;20317;-47
2021/12/10 12:31:15;;;;;;;4.10;3.40;;;21.70;58.90;;;;;;5088466;28;20285;-48
2021/12/10 12:34:05;;;;;;;3.95;3.30;;;21.70;58.90;;;;;;5089929;28;20236;-47
2021/12/10 12:36:41;;;;;;;3.28;2.97;;;21.70;58.90;;;;;;5084753;28;20277;-47
2021/12/10 12:39:27;;;;;;;3.50;3.20;;;21.70;58.90;;;;;;5088542;28;20244;-44
2021/12/10 12:41:58;;;;;;;3.63;2.97;;;21.70;58.90;;;;;;5087466;28;20281;-49
2021/12/10 12:44:34;;;;;;;3.95;3.10;;;21.70;58.90;;;;;;5088164;28;20257;-44
2021/12/10 12:47:09;;;;;;;4.22;3.38;;;21.70;58.80;;;;;;5088815;28;20213;-44
2021/12/10 12:50:12;;;;;;;3.78;3.22;;;21.70;58.90;;;;;;5089116;28;20286;-44
2021/12/10 12:52:46;;;;;;;3.30;3.00;;;21.70;58.90;;;;;;5025944;28;20290;-48
2021/12/10 12:55:35;;;;;;;3.20;2.90;;;21.70;58.90;;;;;;5077270;28;20281;-43
2021/12/10 12:58:22;;;;;;;3.78;3.13;;;21.70;58.90;;;;;;5089053;28;20214;-44
2021/12/10 13:01:01;;;;;;;3.60;3.20;;;21.70;58.90;;;;;;5088956;28;20277;-47
2021/12/10 13:03:37;;;;;;;3.53;2.83;;;21.60;58.90;;;;;;5088763;28;20193;-49
2021/12/10 13:06:14;;;;;;;3.20;2.90;;;21.60;58.90;;;;;;5086451;28;20277;-43
2021/12/10 13:08:54;;;;;;;3.47;2.95;;;21.60;58.90;;;;;;5086106;28;20255;-44
2021/12/10 13:11:30;;;;;;;3.85;3.20;;;21.60;58.80;;;;;;5090368;28;20198;-44
2021/12/10 13:14:12;;;;;;;3.17;2.90;;;21.60;58.80;;;;;;5077377;28;20661;-44
2021/12/10 13:16:46;;;;;;;4.15;3.35;;;21.60;59.40;;;;;;5093227;28;20281;-49
2021/12/10 13:19:18;;;;;;;4.88;3.35;;;21.60;58.80;;;;;;5092435;28;20254;-50
2021/12/10 13:21:53;;;;;;;3.47;2.58;;;21.60;58.80;;;;;;5091951;28;20279;-45
2021/12/10 13:24:24;;;;;;;3.53;3.08;;;21.60;58.80;;;;;;5092059;28;20250;-49
2021/12/10 13:26:57;;;;;;;4.55;3.33;;;21.60;58.80;;;;;;5091875;28;20278;-51
2021/12/10 13:29:28;;;;;;;3.35;3.03;;;21.60;58.80;;;;;;5092557;28;20198;-44